Time;durP1;ratioP1;P1;durP2;ratioP2;P2;SDS_P1;SDS_P2;PMS_P1;PMS_P2;Temp;Humidity;BMP_temperature;BMP_pressure;BME280_temperature;BME280_humidity;BME280_pressure;Samples;Min_cycle;Max_cycle;Signal;HPM_P1;HPM_P2
2022/12/25 00:02:17;;;;;;;16.75;8.40;;;7.20;1.00;;;;;;4955858;28;20787;-79
2022/12/25 00:04:46;;;;;;;14.98;9.13;;;7.10;1.00;;;;;;4957119;28;20346;-85
2022/12/25 00:07:17;;;;;;;20.08;9.13;;;7.10;1.00;;;;;;4961336;28;20217;-80
2022/12/25 00:09:45;;;;;;;18.88;10.00;;;7.10;1.00;;;;;;4957438;28;20245;-84
2022/12/25 00:12:18;;;;;;;15.45;9.20;;;7.00;1.00;;;;;;4956082;28;20213;-82
2022/12/25 00:14:45;;;;;;;15.30;10.52;;;7.00;1.00;;;;;;4959587;28;21063;-81
2022/12/25 00:17:17;;;;;;;19.58;10.05;;;7.00;1.00;;;;;;4960068;28;20232;-82
2022/12/25 00:19:45;;;;;;;19.00;10.60;;;7.00;1.00;;;;;;4956994;28;20290;-85
2022/12/25 00:22:16;;;;;;;17.20;10.13;;;6.90;1.00;;;;;;4957171;28;20225;-83
2022/12/25 00:24:44;;;;;;;23.55;9.48;;;6.90;1.00;;;;;;4956877;28;20237;-82
2022/12/25 00:27:16;;;;;;;21.48;10.88;;;6.90;1.00;;;;;;4962308;28;20242;-83
2022/12/25 00:29:43;;;;;;;17.17;9.95;;;6.90;1.00;;;;;;4955825;28;20342;-85
2022/12/25 00:32:12;;;;;;;23.27;10.82;;;6.90;1.00;;;;;;4959111;28;21031;-83
2022/12/25 00:34:42;;;;;;;18.70;11.63;;;6.80;1.00;;;;;;4948768;28;20325;-80
2022/12/25 00:37:21;;;;;;;16.63;9.95;;;6.80;1.00;;;;;;4953828;28;20713;-86
2022/12/25 00:39:48;;;;;;;18.05;10.27;;;6.80;1.00;;;;;;4953897;28;20236;-80
2022/12/25 00:42:19;;;;;;;21.23;10.02;;;6.80;1.00;;;;;;4955776;28;20245;-82
2022/12/25 00:44:47;;;;;;;19.83;10.40;;;6.80;1.00;;;;;;4954237;28;20339;-81
2022/12/25 00:47:20;;;;;;;23.00;10.18;;;6.80;1.00;;;;;;4955379;28;20229;-84
2022/12/25 00:49:47;;;;;;;22.52;10.98;;;6.80;1.00;;;;;;4944830;28;20723;-85
2022/12/25 00:52:18;;;;;;;19.35;10.35;;;6.80;1.00;;;;;;4955239;28;20237;-83
2022/12/25 00:54:46;;;;;;;17.02;9.40;;;6.80;1.00;;;;;;4958173;28;21048;-81
2022/12/25 00:57:16;;;;;;;16.08;10.45;;;6.80;1.00;;;;;;4955567;28;20229;-80
2022/12/25 00:59:43;;;;;;;18.50;9.68;;;6.80;1.00;;;;;;4957034;28;20239;-83
2022/12/25 01:02:23;;;;;;;19.65;11.25;;;6.80;1.00;;;;;;4956016;28;20247;-84
2022/12/25 01:04:56;;;;;;;21.73;11.02;;;6.70;1.00;;;;;;4960631;28;20244;-84
2022/12/25 01:07:26;;;;;;;19.17;11.15;;;6.60;1.00;;;;;;4961984;28;21065;-83
2022/12/25 01:12:43;;;;;;;15.82;9.85;;;6.50;1.00;;;;;;4958413;28;20233;-81
2022/12/25 01:15:16;;;;;;;18.20;11.15;;;6.50;1.00;;;;;;4961810;28;20241;-79
2022/12/25 01:17:44;;;;;;;18.83;11.10;;;6.50;1.00;;;;;;4958468;28;20248;-81
2022/12/25 01:20:17;;;;;;;21.38;10.40;;;6.40;1.00;;;;;;4959439;28;20240;-84
2022/12/25 01:22:45;;;;;;;19.95;10.65;;;6.40;1.00;;;;;;4960431;28;20353;-84
2022/12/25 01:25:17;;;;;;;20.70;11.38;;;6.30;1.00;;;;;;4962417;28;20225;-83
2022/12/25 01:27:47;;;;;;;16.50;11.90;;;6.30;1.00;;;;;;4942418;28;20244;-83
2022/12/25 01:30:17;;;;;;;16.45;10.45;;;6.30;1.00;;;;;;4951630;28;20287;-81
2022/12/25 01:32:47;;;;;;;19.10;10.20;;;6.30;1.00;;;;;;4944074;28;20271;-82
2022/12/25 01:35:17;;;;;;;15.00;10.13;;;6.30;1.00;;;;;;4952474;28;20249;-82
2022/12/25 01:37:45;;;;;;;18.25;10.48;;;6.30;1.00;;;;;;4956391;28;20244;-82
2022/12/25 01:40:19;;;;;;;18.23;11.60;;;6.30;1.00;;;;;;4960304;28;20229;-81
2022/12/25 01:42:47;;;;;;;17.95;10.25;;;6.20;1.00;;;;;;4958297;28;20919;-81
2022/12/25 01:45:36;;;;;;;17.92;10.30;;;6.20;1.00;;;;;;4957193;28;20244;-81
2022/12/25 01:48:08;;;;;;;22.13;11.77;;;6.10;1.00;;;;;;4956837;28;20241;-83
2022/12/25 01:50:40;;;;;;;18.95;10.30;;;6.10;1.00;;;;;;4957456;28;20232;-81
2022/12/25 01:53:09;;;;;;;19.88;11.02;;;6.00;1.00;;;;;;4960867;28;20213;-81
2022/12/25 01:55:38;;;;;;;22.67;11.15;;;6.00;1.00;;;;;;4950989;28;20233;-83
2022/12/25 01:58:05;;;;;;;16.00;10.50;;;6.00;1.00;;;;;;4958766;28;20242;-81
2022/12/25 02:00:39;;;;;;;20.40;10.20;;;6.00;1.00;;;;;;4956093;28;20237;-83
2022/12/25 02:03:07;;;;;;;15.80;10.13;;;6.00;1.00;;;;;;4961195;28;20248;-83
2022/12/25 02:05:40;;;;;;;16.02;10.02;;;6.00;1.00;;;;;;4955177;28;20270;-82
2022/12/25 02:08:16;;;;;;;34.83;13.32;;;5.90;1.00;;;;;;4955165;28;20245;-82
2022/12/25 02:10:46;;;;;;;16.95;10.55;;;5.80;1.00;;;;;;4954259;28;20237;-82
2022/12/25 02:13:18;;;;;;;19.40;9.88;;;5.70;1.00;;;;;;4957121;28;20243;-83
2022/12/25 02:16:03;;;;;;;18.38;10.20;;;5.70;1.00;;;;;;4961847;28;20291;-83
2022/12/25 02:18:40;;;;;;;18.90;10.27;;;5.70;1.00;;;;;;4944579;28;20240;-80
2022/12/25 02:21:30;;;;;;;16.10;10.48;;;5.60;1.00;;;;;;4958683;28;20237;-80
2022/12/25 02:24:37;;;;;;;15.52;9.90;;;5.50;1.00;;;;;;4957509;28;20347;-81
2022/12/25 02:27:16;;;;;;;16.27;9.88;;;5.40;1.00;;;;;;4958030;28;20245;-84
2022/12/25 02:29:56;;;;;;;16.27;9.05;;;5.40;1.00;;;;;;4955098;28;20248;-82
2022/12/25 02:32:29;;;;;;;17.48;9.95;;;5.40;1.00;;;;;;4959042;28;20724;-82
2022/12/25 02:35:03;;;;;;;17.67;10.60;;;5.40;1.00;;;;;;4960837;28;20289;-83
2022/12/25 02:37:37;;;;;;;13.95;10.13;;;5.40;1.00;;;;;;4959501;28;20253;-83
2022/12/25 02:40:18;;;;;;;15.35;9.77;;;5.30;1.00;;;;;;4960030;28;20241;-81
2022/12/25 03:08:35;;;;;;;28.98;11.98;;;4.80;1.00;;;;;;4958810;28;20230;-82
2022/12/25 03:16:49;;;;;;;21.30;10.70;;;4.70;1.00;;;;;;4960525;28;20301;-85
2022/12/25 03:16:54;;;;;;;19.40;10.63;;;4.80;1.00;;;;;;4959824;28;20257;-82
2022/12/25 03:27:54;;;;;;;16.08;10.07;;;4.70;1.00;;;;;;4929795;28;20273;-82
2022/12/25 03:35:21;;;;;;;17.08;10.35;;;4.80;1.00;;;;;;4896101;29;20337;-81
2022/12/25 03:36:35;;;;;;;15.60;11.00;;;4.80;1.00;;;;;;4935379;28;20257;-82
2022/12/25 04:37:40;;;;;;;22.35;13.02;;;4.20;1.00;;;;;;4931890;28;20986;-81
2022/12/25 04:40:08;;;;;;;19.73;11.75;;;4.20;1.00;;;;;;4949601;28;20240;-82
2022/12/25 04:42:39;;;;;;;22.50;11.50;;;4.20;1.00;;;;;;4953268;28;20245;-81
2022/12/25 04:45:06;;;;;;;15.13;10.52;;;4.20;1.00;;;;;;4946599;28;20248;-82
2022/12/25 04:47:34;;;;;;;20.42;10.45;;;4.20;1.00;;;;;;4948784;28;20244;-82
2022/12/25 04:50:07;;;;;;;15.93;10.57;;;4.10;1.00;;;;;;4946239;28;20237;-82
2022/12/25 04:52:36;;;;;;;16.65;9.57;;;4.10;1.00;;;;;;4933995;28;20378;-83
2022/12/25 04:55:05;;;;;;;20.30;11.00;;;4.00;1.00;;;;;;4947297;28;20248;-85
2022/12/25 04:57:33;;;;;;;21.38;12.30;;;4.00;1.00;;;;;;4936308;28;20300;-82
2022/12/25 05:00:09;;;;;;;17.75;10.88;;;4.00;1.00;;;;;;4950466;28;20235;-85
2022/12/25 05:02:36;;;;;;;15.55;9.43;;;4.00;1.00;;;;;;4954092;28;20331;-83
2022/12/25 05:05:05;;;;;;;16.52;8.90;;;3.90;1.00;;;;;;4952325;28;20246;-80
2022/12/25 05:07:33;;;;;;;12.77;9.90;;;3.80;1.00;;;;;;4954894;28;20975;-82
2022/12/25 05:10:05;;;;;;;15.30;9.02;;;3.80;1.00;;;;;;4952714;28;20236;-83
2022/12/25 05:12:32;;;;;;;18.45;9.40;;;3.70;1.00;;;;;;4955934;28;20247;-84
2022/12/25 05:15:12;;;;;;;17.85;9.73;;;3.60;1.00;;;;;;4950804;28;20240;-83
2022/12/25 05:17:44;;;;;;;21.75;12.93;;;3.60;1.00;;;;;;4956124;28;20287;-82
2022/12/25 05:20:11;;;;;;;22.30;12.57;;;3.50;1.00;;;;;;4954502;28;20237;-83
2022/12/25 05:25:24;;;;;;;16.02;10.15;;;3.60;1.00;;;;;;4946036;28;20230;-85
2022/12/25 05:27:51;;;;;;;16.85;10.70;;;3.70;1.00;;;;;;4958690;28;20244;-85
2022/12/25 05:30:24;;;;;;;19.80;11.35;;;3.80;1.00;;;;;;4940630;28;20236;-82
2022/12/25 05:32:51;;;;;;;22.67;14.43;;;3.80;1.00;;;;;;4946382;28;20245;-80
2022/12/25 05:35:27;;;;;;;28.77;13.25;;;3.70;1.00;;;;;;4953485;28;20710;-79
2022/12/25 05:37:54;;;;;;;19.10;11.40;;;3.60;1.00;;;;;;4951170;28;20320;-82
2022/12/25 05:40:25;;;;;;;15.10;9.80;;;3.60;1.00;;;;;;4948520;28;20255;-81
2022/12/25 05:42:53;;;;;;;16.65;10.15;;;3.60;1.00;;;;;;4932340;28;20276;-81
2022/12/25 05:45:26;;;;;;;17.58;11.48;;;3.60;1.00;;;;;;4955249;28;20237;-83
2022/12/25 05:47:53;;;;;;;16.40;9.48;;;3.50;1.00;;;;;;4952819;28;20245;-83
2022/12/25 05:50:26;;;;;;;21.75;10.80;;;3.50;1.00;;;;;;4951864;28;20236;-81
2022/12/25 05:52:54;;;;;;;19.20;10.38;;;3.30;1.00;;;;;;4949901;28;20248;-79
2022/12/25 05:55:25;;;;;;;19.55;9.38;;;3.30;1.00;;;;;;4958372;28;20265;-81
2022/12/25 05:57:52;;;;;;;15.82;9.45;;;3.20;1.00;;;;;;4948374;28;20241;-79
2022/12/25 06:00:25;;;;;;;17.90;9.50;;;3.10;1.00;;;;;;4942312;28;20241;-82
2022/12/25 06:02:53;;;;;;;22.35;9.00;;;3.00;1.00;;;;;;4954861;28;20237;-85
2022/12/25 06:05:24;;;;;;;18.55;8.13;;;3.00;1.00;;;;;;4950459;28;20242;-81
2022/12/25 06:07:51;;;;;;;16.10;9.57;;;3.00;1.00;;;;;;4957712;28;20241;-82
2022/12/25 06:10:23;;;;;;;13.40;8.18;;;3.00;1.00;;;;;;4955999;28;20267;-82
2022/12/25 06:12:50;;;;;;;22.92;8.82;;;2.90;1.00;;;;;;4953970;28;20249;-81
2022/12/25 06:15:17;;;;;;;25.02;9.25;;;2.90;1.00;;;;;;4957686;28;21561;-84
2022/12/25 06:17:46;;;;;;;22.17;9.50;;;3.00;1.00;;;;;;4957589;28;20391;-82
2022/12/25 06:20:17;;;;;;;24.80;10.52;;;2.90;1.00;;;;;;4958614;28;20244;-84
2022/12/25 06:22:44;;;;;;;37.78;10.27;;;2.90;1.00;;;;;;4960555;28;20300;-81
2022/12/25 06:25:15;;;;;;;38.95;10.15;;;3.00;1.00;;;;;;4957533;28;20217;-80
2022/12/25 06:27:42;;;;;;;66.18;14.75;;;3.10;1.00;;;;;;4959344;28;20241;-81
2022/12/25 06:30:15;;;;;;;37.92;11.00;;;3.20;1.00;;;;;;4959808;28;20267;-81
2022/12/25 06:32:42;;;;;;;68.43;12.68;;;3.20;1.00;;;;;;4955961;28;20244;-85
2022/12/25 06:35:18;;;;;;;49.10;11.13;;;3.30;1.00;;;;;;4955424;28;20274;-82
2022/12/25 06:37:45;;;;;;;76.88;14.27;;;3.30;1.00;;;;;;4955437;28;21041;-81
2022/12/25 06:40:15;;;;;;;62.83;13.63;;;3.30;1.00;;;;;;4958447;28;20237;-84
2022/12/25 06:42:42;;;;;;;41.75;11.52;;;3.20;1.00;;;;;;4955985;28;20259;-81
2022/12/25 06:45:14;;;;;;;74.88;13.52;;;3.20;1.00;;;;;;4956398;28;20233;-82
2022/12/25 06:47:41;;;;;;;43.28;10.80;;;3.10;1.00;;;;;;4957137;28;20248;-85
2022/12/25 06:50:15;;;;;;;29.83;9.85;;;3.10;1.00;;;;;;4954777;28;20261;-80
2022/12/25 06:52:42;;;;;;;35.83;11.45;;;3.10;1.00;;;;;;4958444;28;20232;-82
2022/12/25 06:55:17;;;;;;;38.47;10.35;;;3.00;1.00;;;;;;4958264;28;20241;-83
2022/12/25 06:57:44;;;;;;;50.38;12.18;;;3.00;1.00;;;;;;4956480;28;20336;-82
2022/12/25 07:00:20;;;;;;;24.08;9.18;;;3.00;1.00;;;;;;4954728;28;20244;-84
2022/12/25 07:02:54;;;;;;;21.60;8.82;;;3.00;1.00;;;;;;4954018;28;20240;-85
2022/12/25 07:05:22;;;;;;;59.08;12.65;;;3.00;1.00;;;;;;4948028;28;22340;-82
2022/12/25 07:07:53;;;;;;;34.90;10.75;;;3.00;1.00;;;;;;4953079;28;20245;-83
2022/12/25 07:10:22;;;;;;;54.40;12.90;;;3.00;1.00;;;;;;4940759;28;20224;-81
2022/12/25 07:12:53;;;;;;;57.58;12.20;;;3.00;1.00;;;;;;4957297;28;20288;-82
2022/12/25 07:15:23;;;;;;;31.38;9.90;;;3.00;1.00;;;;;;4930452;28;20260;-82
2022/12/25 07:17:50;;;;;;;45.58;10.73;;;3.10;1.00;;;;;;4950630;28;20217;-83
2022/12/25 07:20:17;;;;;;;59.88;12.00;;;3.10;1.00;;;;;;4951026;28;21204;-83
2022/12/25 07:22:45;;;;;;;33.88;10.65;;;3.00;1.00;;;;;;4943755;28;20300;-83
2022/12/25 07:25:12;;;;;;;26.02;8.95;;;3.00;1.00;;;;;;4935647;28;20251;-82
2022/12/25 07:27:44;;;;;;;65.32;13.02;;;3.00;1.00;;;;;;4946950;28;20627;-83
2022/12/25 07:30:12;;;;;;;32.10;10.38;;;3.00;1.00;;;;;;4953559;28;21076;-82
2022/12/25 07:32:40;;;;;;;23.52;10.55;;;3.10;1.00;;;;;;4953030;28;20245;-81
2022/12/25 07:35:08;;;;;;;39.03;12.52;;;3.10;1.00;;;;;;4941215;28;20248;-82
2022/12/25 07:37:38;;;;;;;39.13;9.80;;;3.20;1.00;;;;;;4957260;28;20237;-82
2022/12/25 07:40:09;;;;;;;21.67;11.45;;;3.20;1.00;;;;;;4958160;28;20331;-83
2022/12/25 07:42:36;;;;;;;51.20;12.70;;;3.20;1.00;;;;;;4959256;28;20297;-83
2022/12/25 07:45:03;;;;;;;51.45;13.65;;;3.30;1.00;;;;;;4955968;28;20236;-83
2022/12/25 07:47:44;;;;;;;35.95;12.88;;;3.30;1.00;;;;;;4957822;28;20241;-82
2022/12/25 07:50:16;;;;;;;47.22;13.02;;;3.30;1.00;;;;;;4954043;28;20236;-85
2022/12/25 07:52:45;;;;;;;39.50;12.48;;;3.30;1.00;;;;;;4953546;28;20247;-84
2022/12/25 07:55:17;;;;;;;47.15;11.73;;;3.30;1.00;;;;;;4944274;28;20241;-85
2022/12/25 07:57:46;;;;;;;44.63;12.00;;;3.30;1.00;;;;;;4949597;28;21022;-83
2022/12/25 08:00:18;;;;;;;29.08;9.95;;;3.30;1.00;;;;;;4947771;28;20220;-81
2022/12/25 08:02:45;;;;;;;46.03;11.98;;;3.40;1.00;;;;;;4953064;28;21065;-83
2022/12/25 08:05:18;;;;;;;42.65;12.77;;;3.50;1.00;;;;;;4955266;28;20238;-83
2022/12/25 08:07:45;;;;;;;34.60;11.30;;;3.50;1.00;;;;;;4955361;28;20895;-84
2022/12/25 08:10:21;;;;;;;54.53;13.00;;;3.70;1.00;;;;;;4945110;28;20309;-82
2022/12/25 08:15:43;;;;;;;29.50;9.75;;;3.60;1.00;;;;;;4957934;28;20239;-86
2022/12/25 08:18:10;;;;;;;35.63;10.52;;;3.60;1.00;;;;;;4949290;28;20245;-83
2022/12/25 08:20:38;;;;;;;66.10;14.07;;;3.50;1.00;;;;;;4953026;28;20233;-84
2022/12/25 08:23:05;;;;;;;55.28;13.45;;;3.50;1.00;;;;;;4956335;28;20257;-82
2022/12/25 08:25:40;;;;;;;31.40;10.52;;;3.60;1.00;;;;;;4955702;28;20230;-81
2022/12/25 08:28:07;;;;;;;38.72;11.70;;;3.60;1.00;;;;;;4957638;28;20332;-84
2022/12/25 08:30:38;;;;;;;54.30;13.20;;;3.60;1.00;;;;;;4956089;28;20248;-83
2022/12/25 08:33:06;;;;;;;45.95;12.25;;;3.60;1.00;;;;;;4958204;28;20357;-81
2022/12/25 08:35:37;;;;;;;40.80;12.70;;;3.70;1.00;;;;;;4956801;28;20293;-83
2022/12/25 08:38:04;;;;;;;38.70;12.25;;;3.60;1.00;;;;;;4954159;28;20270;-82
2022/12/25 08:40:40;;;;;;;65.53;14.18;;;3.70;1.00;;;;;;4958033;28;20240;-83
2022/12/25 08:43:07;;;;;;;49.88;12.15;;;3.70;1.00;;;;;;4953885;28;20296;-84
2022/12/25 08:45:36;;;;;;;42.72;11.85;;;3.80;1.00;;;;;;4957841;28;20237;-82
2022/12/25 08:48:03;;;;;;;58.47;12.82;;;3.90;1.00;;;;;;4956862;28;20248;-81
2022/12/25 08:50:35;;;;;;;38.25;14.15;;;4.10;1.00;;;;;;4957390;28;20328;-84
2022/12/25 08:53:03;;;;;;;54.20;13.10;;;4.20;1.00;;;;;;4958559;28;20505;-84
2022/12/25 08:55:34;;;;;;;62.58;15.13;;;4.30;1.00;;;;;;4954348;28;20221;-81
2022/12/25 08:58:03;;;;;;;42.78;14.30;;;4.30;1.00;;;;;;4953656;28;20281;-83
2022/12/25 09:00:42;;;;;;;42.35;13.27;;;4.40;1.00;;;;;;4956118;28;20248;-77
2022/12/25 09:03:11;;;;;;;37.83;13.73;;;4.50;1.00;;;;;;4955364;28;20276;-77
2022/12/25 09:05:39;;;;;;;49.55;13.80;;;4.60;1.00;;;;;;4935120;28;20256;-80
2022/12/25 09:08:07;;;;;;;38.33;13.48;;;4.50;1.00;;;;;;4955607;28;20272;-81
2022/12/25 09:10:37;;;;;;;36.65;12.43;;;4.40;1.00;;;;;;4955234;28;21458;-81
2022/12/25 09:13:05;;;;;;;36.28;11.50;;;4.50;1.00;;;;;;4956083;28;20324;-81
2022/12/25 09:15:37;;;;;;;31.98;11.18;;;4.60;1.00;;;;;;4954230;28;20354;-81
2022/12/25 09:18:04;;;;;;;30.98;11.55;;;4.70;1.00;;;;;;4957068;28;20248;-82
2022/12/25 09:20:47;;;;;;;25.38;11.85;;;4.60;1.00;;;;;;4957951;28;20245;-82
2022/12/25 09:23:16;;;;;;;21.00;10.05;;;4.50;1.00;;;;;;4957435;28;20243;-84
2022/12/25 09:25:46;;;;;;;18.80;9.98;;;4.40;1.00;;;;;;4948769;28;20236;-81
2022/12/25 09:28:18;;;;;;;27.85;12.32;;;4.20;1.00;;;;;;4955948;28;20252;-80
2022/12/25 09:30:49;;;;;;;18.33;10.10;;;4.30;1.00;;;;;;4946700;28;20967;-83
2022/12/25 09:33:16;;;;;;;21.85;10.32;;;4.10;1.00;;;;;;4947094;28;20272;-83
2022/12/25 09:35:43;;;;;;;15.57;9.57;;;4.30;1.00;;;;;;4955396;28;20300;-82
2022/12/25 09:38:10;;;;;;;16.98;9.68;;;4.40;1.00;;;;;;4958053;28;20639;-84
2022/12/25 09:40:37;;;;;;;15.65;10.30;;;4.50;1.00;;;;;;4958435;28;20244;-84
2022/12/25 09:43:04;;;;;;;20.50;11.85;;;4.60;1.00;;;;;;4955616;28;20310;-84
2022/12/25 09:45:38;;;;;;;26.08;11.32;;;4.40;1.00;;;;;;4948767;28;20237;-84
2022/12/25 09:48:06;;;;;;;32.45;12.43;;;4.20;1.00;;;;;;4955255;28;20375;-83
2022/12/25 09:50:42;;;;;;;20.83;11.27;;;4.20;1.00;;;;;;4955569;28;20261;-84
2022/12/25 09:53:15;;;;;;;24.00;10.80;;;4.30;1.00;;;;;;4955100;28;20249;-83
2022/12/25 09:55:49;;;;;;;21.92;12.57;;;4.30;1.00;;;;;;4957859;28;21129;-84
2022/12/25 09:58:16;;;;;;;22.90;12.77;;;4.20;1.00;;;;;;4962352;28;20229;-85
2022/12/25 10:00:52;;;;;;;37.13;13.98;;;4.30;1.00;;;;;;4959249;28;20244;-83
2022/12/25 10:03:32;;;;;;;35.13;12.60;;;4.40;1.00;;;;;;4955420;28;20240;-85
2022/12/25 10:06:16;;;;;;;33.08;12.80;;;4.30;1.00;;;;;;4948782;28;20240;-83
2022/12/25 10:09:18;;;;;;;61.22;14.93;;;4.50;1.00;;;;;;4953957;28;20237;-83
2022/12/25 10:12:01;;;;;;;33.35;11.20;;;4.70;1.00;;;;;;4928851;28;20256;-84
2022/12/25 10:14:36;;;;;;;60.08;17.85;;;4.70;1.00;;;;;;4955811;28;20240;-82
2022/12/25 10:17:26;;;;;;;37.78;13.32;;;4.80;1.00;;;;;;4954461;28;22354;-83
2022/12/25 10:19:58;;;;;;;25.50;11.38;;;4.90;1.00;;;;;;4959968;28;20248;-83
2022/12/25 10:22:33;;;;;;;40.65;13.07;;;4.80;1.00;;;;;;4959167;28;20277;-82
2022/12/25 10:25:02;;;;;;;31.10;11.65;;;4.80;1.00;;;;;;4957181;28;20296;-83
2022/12/25 10:27:32;;;;;;;27.50;11.55;;;4.70;1.00;;;;;;4956557;28;20248;-82
2022/12/25 10:30:00;;;;;;;42.10;13.63;;;4.90;1.00;;;;;;4956386;28;20259;-83
2022/12/25 10:32:28;;;;;;;39.00;13.75;;;4.90;1.00;;;;;;4952875;28;20241;-83
2022/12/25 10:34:55;;;;;;;26.67;11.80;;;4.70;1.00;;;;;;4954858;28;20273;-84
2022/12/25 10:37:22;;;;;;;32.47;12.57;;;4.80;1.00;;;;;;4962043;28;21142;-83
2022/12/25 10:39:50;;;;;;;36.83;13.20;;;4.90;1.00;;;;;;4958065;28;20271;-83
2022/12/25 10:42:33;;;;;;;21.52;11.50;;;4.80;1.00;;;;;;4957764;28;20301;-84
2022/12/25 10:45:02;;;;;;;29.80;12.63;;;5.00;1.00;;;;;;4958987;28;20252;-84
2022/12/25 10:47:33;;;;;;;21.20;11.13;;;5.10;1.00;;;;;;4957079;28;20252;-83
2022/12/25 10:50:01;;;;;;;21.77;11.52;;;5.30;1.00;;;;;;4959915;28;20798;-83
2022/12/25 10:52:29;;;;;;;30.98;11.18;;;5.60;1.00;;;;;;4959305;28;20245;-83
2022/12/25 10:54:56;;;;;;;26.83;10.45;;;5.80;1.00;;;;;;4956497;28;20234;-83
2022/12/25 10:57:26;;;;;;;26.67;12.10;;;5.70;1.00;;;;;;4953799;28;20225;-84
2022/12/25 10:59:55;;;;;;;18.10;11.10;;;5.70;1.00;;;;;;4956403;28;20233;-83
2022/12/25 11:02:26;;;;;;;17.52;10.50;;;5.80;1.00;;;;;;4953402;28;20247;-83
2022/12/25 11:05:02;;;;;;;18.15;10.45;;;5.70;1.00;;;;;;4955495;28;20240;-83
2022/12/25 11:07:31;;;;;;;18.60;10.68;;;5.40;1.00;;;;;;4958695;28;20240;-83
2022/12/25 11:10:02;;;;;;;25.83;12.88;;;5.30;1.00;;;;;;4957654;28;20252;-83
2022/12/25 11:12:32;;;;;;;24.33;10.40;;;5.30;1.00;;;;;;4956195;28;20262;-83
2022/12/25 11:15:02;;;;;;;17.73;11.55;;;5.50;1.00;;;;;;4943282;28;20248;-83
2022/12/25 11:17:29;;;;;;;20.17;11.00;;;5.60;1.00;;;;;;4957181;28;20268;-83
2022/12/25 11:19:58;;;;;;;17.00;11.30;;;5.60;1.00;;;;;;4956988;28;20236;-83
2022/12/25 11:22:27;;;;;;;20.35;10.75;;;5.70;1.00;;;;;;4960594;28;21064;-83
2022/12/25 11:24:55;;;;;;;17.20;10.95;;;5.80;1.00;;;;;;4951607;28;20756;-83
2022/12/25 11:27:25;;;;;;;15.98;10.57;;;6.00;1.00;;;;;;4956681;28;20229;-82
2022/12/25 11:29:57;;;;;;;16.75;11.15;;;6.00;1.00;;;;;;4954432;28;20225;-83
2022/12/25 11:32:29;;;;;;;15.68;9.27;;;6.00;1.00;;;;;;4953762;28;20241;-84
2022/12/25 11:34:57;;;;;;;19.40;11.52;;;6.00;1.00;;;;;;4958652;28;20240;-85
2022/12/25 11:37:32;;;;;;;18.38;11.00;;;5.90;1.00;;;;;;4957185;28;20309;-85
2022/12/25 11:40:00;;;;;;;19.77;13.10;;;5.90;1.00;;;;;;4957845;28;20771;-85
2022/12/25 11:42:33;;;;;;;16.95;12.32;;;5.90;1.00;;;;;;4951774;28;20244;-86
2022/12/25 11:45:05;;;;;;;18.38;12.15;;;5.70;1.00;;;;;;4952543;28;20245;-85
2022/12/25 11:47:37;;;;;;;16.02;10.32;;;5.50;1.00;;;;;;4953445;28;20237;-86
2022/12/25 11:50:14;;;;;;;14.63;11.35;;;5.50;1.00;;;;;;4954150;28;20265;-86
2022/12/25 11:52:46;;;;;;;19.30;11.63;;;5.60;1.00;;;;;;4946858;28;20245;-81
2022/12/25 11:55:19;;;;;;;19.42;13.38;;;5.60;1.00;;;;;;4951493;28;20292;-81
2022/12/25 11:57:53;;;;;;;16.35;10.77;;;5.60;1.00;;;;;;4943036;28;20245;-82
2022/12/25 12:00:21;;;;;;;16.30;12.02;;;5.60;1.00;;;;;;4947770;28;20395;-81
2022/12/25 12:02:56;;;;;;;16.65;10.93;;;5.60;1.00;;;;;;4946535;28;21046;-81
2022/12/25 12:05:29;;;;;;;16.00;11.40;;;5.60;1.00;;;;;;4943177;28;20244;-80
2022/12/25 12:08:02;;;;;;;15.05;11.45;;;5.70;1.00;;;;;;4950260;28;20320;-80
2022/12/25 12:10:52;;;;;;;15.70;11.00;;;5.70;1.00;;;;;;4951953;28;20245;-80
2022/12/25 12:13:34;;;;;;;16.17;11.45;;;5.70;1.00;;;;;;4948942;28;20755;-80
2022/12/25 12:16:02;;;;;;;17.95;11.15;;;5.60;1.00;;;;;;4949967;28;20245;-80
2022/12/25 12:18:33;;;;;;;13.50;9.48;;;5.60;1.00;;;;;;4948297;28;20242;-79
2022/12/25 12:21:03;;;;;;;17.45;9.88;;;5.70;1.00;;;;;;4948121;28;20824;-81
2022/12/25 12:23:35;;;;;;;13.80;9.65;;;5.80;1.00;;;;;;4953921;28;20301;-80
2022/12/25 12:26:03;;;;;;;13.18;9.18;;;5.80;1.00;;;;;;4948998;28;21084;-81
2022/12/25 12:28:46;;;;;;;12.73;9.00;;;5.80;1.00;;;;;;4953015;28;20244;-80
2022/12/25 12:31:14;;;;;;;13.32;9.90;;;6.00;1.00;;;;;;4946262;28;20563;-80
2022/12/25 12:33:46;;;;;;;14.98;9.85;;;6.00;1.00;;;;;;4956674;28;20289;-81
2022/12/25 12:36:15;;;;;;;15.98;10.98;;;6.10;1.00;;;;;;4951104;28;20233;-83
2022/12/25 12:38:44;;;;;;;16.27;10.43;;;6.20;1.00;;;;;;4947242;28;20549;-80
2022/12/25 12:41:15;;;;;;;14.43;11.15;;;6.30;1.00;;;;;;4949564;28;20241;-80
2022/12/25 12:43:45;;;;;;;13.82;10.00;;;6.30;1.00;;;;;;4951132;28;20241;-80
2022/12/25 12:46:19;;;;;;;12.70;9.75;;;6.30;1.00;;;;;;4950651;28;20274;-82
2022/12/25 12:48:48;;;;;;;14.30;9.02;;;6.20;1.00;;;;;;4954801;28;20824;-81
2022/12/25 12:51:28;;;;;;;15.63;11.07;;;6.30;1.00;;;;;;4951367;28;20395;-83
2022/12/25 12:54:19;;;;;;;13.68;8.85;;;6.30;1.00;;;;;;4952253;28;20966;-84
2022/12/25 12:56:56;;;;;;;12.63;8.80;;;6.40;1.00;;;;;;4948722;28;21059;-79
2022/12/25 12:59:23;;;;;;;14.00;10.45;;;6.40;1.00;;;;;;4952099;28;20368;-77
2022/12/25 13:02:05;;;;;;;11.88;8.98;;;6.40;1.00;;;;;;4958026;28;20232;-81
2022/12/25 13:04:46;;;;;;;15.63;10.75;;;6.40;1.00;;;;;;4957008;28;21256;-81
2022/12/25 13:07:43;;;;;;;12.38;8.77;;;6.40;1.00;;;;;;4959651;28;20241;-77
2022/12/25 13:10:23;;;;;;;14.70;9.32;;;6.40;1.00;;;;;;4940411;28;20272;-80
2022/12/25 13:13:00;;;;;;;13.32;8.73;;;6.30;1.00;;;;;;4961912;28;20240;-77
2022/12/25 13:15:36;;;;;;;12.82;8.38;;;6.40;1.00;;;;;;4964976;28;20236;-82
2022/12/25 13:18:07;;;;;;;11.90;9.13;;;6.40;1.00;;;;;;4960379;28;21064;-77
2022/12/25 13:20:43;;;;;;;12.10;9.43;;;6.20;1.00;;;;;;4953296;28;20257;-77
2022/12/25 13:23:26;;;;;;;10.52;8.63;;;6.30;1.00;;;;;;4959237;28;20237;-75
2022/12/25 13:26:04;;;;;;;12.25;9.13;;;6.20;1.00;;;;;;4955766;28;20237;-78
2022/12/25 13:28:35;;;;;;;11.40;8.43;;;6.20;1.00;;;;;;4958574;28;20289;-76
2022/12/25 13:31:06;;;;;;;14.32;9.85;;;6.30;1.00;;;;;;4962572;28;20327;-81
2022/12/25 13:33:40;;;;;;;11.23;9.23;;;6.30;1.00;;;;;;4956489;28;20221;-82
2022/12/25 13:36:18;;;;;;;13.18;9.30;;;6.30;1.00;;;;;;4960702;28;20251;-77
2022/12/25 13:38:50;;;;;;;15.15;9.95;;;6.30;1.00;;;;;;4941189;28;20320;-81
2022/12/25 13:44:20;;;;;;;14.18;9.38;;;6.30;1.00;;;;;;4955273;28;20236;-76
2022/12/25 13:46:56;;;;;;;11.63;8.98;;;6.40;1.00;;;;;;4956191;28;20244;-79
2022/12/25 13:49:25;;;;;;;14.73;10.57;;;6.40;1.00;;;;;;4952950;28;20893;-78
2022/12/25 13:52:05;;;;;;;14.02;10.05;;;6.40;1.00;;;;;;4959753;28;20238;-81
2022/12/25 13:54:36;;;;;;;14.07;10.20;;;6.30;1.00;;;;;;4958049;28;20999;-79
2022/12/25 13:57:12;;;;;;;15.15;11.60;;;6.30;1.00;;;;;;4953973;28;20419;-82
2022/12/25 13:59:39;;;;;;;20.80;15.10;;;6.30;1.00;;;;;;4945567;28;20336;-79
2022/12/25 14:02:20;;;;;;;15.95;11.05;;;6.30;1.00;;;;;;4952601;28;20300;-77
2022/12/25 14:04:47;;;;;;;16.08;11.82;;;6.40;1.00;;;;;;4957661;28;20305;-81
2022/12/25 14:07:23;;;;;;;16.42;10.38;;;6.40;1.00;;;;;;4962999;28;20253;-76
2022/12/25 14:09:59;;;;;;;15.75;10.63;;;6.50;1.00;;;;;;4962487;28;20240;-80
2022/12/25 14:12:30;;;;;;;18.63;11.55;;;6.50;1.00;;;;;;4961613;28;20308;-78
2022/12/25 14:15:01;;;;;;;16.00;10.90;;;6.50;1.00;;;;;;4958936;28;20402;-81
2022/12/25 14:17:28;;;;;;;15.38;11.25;;;6.50;1.00;;;;;;4958467;28;20324;-76
2022/12/25 14:20:00;;;;;;;14.00;10.00;;;6.50;1.00;;;;;;4965348;28;20338;-81
2022/12/25 14:22:30;;;;;;;13.05;10.95;;;6.60;1.00;;;;;;4960057;28;20243;-82
2022/12/25 14:25:00;;;;;;;14.63;10.70;;;6.70;1.00;;;;;;4960757;28;20272;-81
2022/12/25 14:27:30;;;;;;;15.20;10.38;;;6.60;1.00;;;;;;4956942;28;20905;-78
2022/12/25 14:30:02;;;;;;;12.35;10.38;;;6.60;1.00;;;;;;4952360;28;20293;-81
2022/12/25 14:32:40;;;;;;;14.63;11.35;;;6.60;1.00;;;;;;4964927;28;20233;-80
2022/12/25 14:35:10;;;;;;;17.73;10.25;;;6.60;1.00;;;;;;4960121;28;20244;-81
2022/12/25 14:37:40;;;;;;;14.93;11.20;;;6.60;1.00;;;;;;4962306;28;20252;-83
2022/12/25 14:40:21;;;;;;;14.02;10.90;;;6.50;1.00;;;;;;4969197;28;20284;-82
2022/12/25 14:43:21;;;;;;;14.05;10.52;;;6.60;1.00;;;;;;4964215;28;20237;-79
2022/12/25 14:46:05;;;;;;;15.88;12.63;;;6.60;1.00;;;;;;4962712;28;20247;-77
2022/12/25 14:48:38;;;;;;;16.17;11.93;;;6.70;1.00;;;;;;4954589;28;21126;-78
2022/12/25 14:51:16;;;;;;;16.95;10.50;;;6.70;1.00;;;;;;4957262;28;20301;-81
2022/12/25 14:53:48;;;;;;;13.80;10.25;;;6.70;1.00;;;;;;4961444;28;20256;-78
2022/12/25 14:56:19;;;;;;;13.35;11.40;;;6.70;1.00;;;;;;4958888;28;21028;-77
2022/12/25 14:58:56;;;;;;;41.38;32.60;;;6.70;1.00;;;;;;4963487;28;20268;-80
2022/12/25 15:01:34;;;;;;;18.08;11.57;;;6.70;1.00;;;;;;4958739;28;20300;-81
2022/12/25 15:04:17;;;;;;;22.45;11.20;;;6.70;1.00;;;;;;4948719;28;20263;-80
2022/12/25 15:06:59;;;;;;;14.02;10.70;;;6.70;1.00;;;;;;4960010;28;20245;-80